Time;durP1;ratioP1;P1;durP2;ratioP2;P2;SDS_P1;SDS_P2;PMS_P1;PMS_P2;Temp;Humidity;BMP_temperature;BMP_pressure;BME280_temperature;BME280_humidity;BME280_pressure;Samples;Min_cycle;Max_cycle;Signal;HPM_P1;HPM_P2
2023/11/07 00:01:36;;;;;;;2.70;1.00;;;;;;;-141.84;82.97;19488.69;4901657;28;20237;-62
2023/11/07 00:04:07;;;;;;;1.73;0.90;;;;;;;-141.84;83.63;19504.94;4908800;29;20284;-63
2023/11/07 00:06:36;;;;;;;1.47;1.03;;;;;;;-141.84;82.21;19460.22;4925512;28;20232;-63
2023/11/07 00:09:05;;;;;;;0.97;0.80;;;;;;;-141.84;81.77;19433.81;4926036;28;20198;-63
2023/11/07 00:11:33;;;;;;;1.73;0.90;;;;;;;-141.84;81.74;19439.91;4915322;28;20613;-63
2023/11/07 00:14:02;;;;;;;1.20;0.90;;;;;;;-141.84;82.75;19446.00;4923926;28;20237;-63
2023/11/07 00:16:32;;;;;;;1.67;0.77;;;;;;;-141.84;80.54;19376.91;4920163;28;20340;-63
2023/11/07 00:19:02;;;;;;;1.23;0.97;;;;;;;-141.84;80.09;19387.06;4924918;28;20316;-63
2023/11/07 00:21:31;;;;;;;1.90;1.00;;;;;;;-141.84;80.44;19411.44;4917754;28;20241;-63
2023/11/07 00:23:59;;;;;;;2.10;1.10;;;;;;;-141.84;81.08;19413.47;4925951;28;20288;-63
2023/11/07 00:26:53;;;;;;;2.73;1.00;;;;;;;-141.84;81.82;19435.84;4925229;28;20808;-63
2023/11/07 00:29:22;;;;;;;1.47;0.80;;;;;;;-141.84;82.19;19448.03;4924886;28;20233;-62
2023/11/07 00:31:52;;;;;;;2.60;0.90;;;;;;;-141.84;81.61;19439.91;4916587;28;20245;-63
2023/11/07 00:34:22;;;;;;;3.30;1.13;;;;;;;-141.84;80.97;19403.31;4921869;28;20222;-63
2023/11/07 00:36:51;;;;;;;1.00;0.80;;;;;;;-141.84;81.66;19454.13;4906188;29;20238;-64
2023/11/07 00:39:19;;;;;;;0.80;0.67;;;;;;;-141.84;80.45;19393.16;4906377;29;20308;-63
2023/11/07 00:41:48;;;;;;;2.30;1.00;;;;;;;-141.84;80.42;19427.72;4900089;29;20665;-63
2023/11/07 00:44:18;;;;;;;1.13;0.70;;;;;;;-141.84;79.15;19427.72;4924991;28;20237;-63
2023/11/07 00:46:46;;;;;;;1.43;0.90;;;;;;;-141.84;80.20;19391.13;4924881;28;20230;-63
2023/11/07 00:49:15;;;;;;;2.60;1.10;;;;;;;-141.84;80.89;19393.16;4925365;28;20264;-63
2023/11/07 00:51:45;;;;;;;0.80;0.80;;;;;;;-141.84;81.38;19391.13;4916801;28;20242;-64
2023/11/07 00:54:14;;;;;;;2.60;0.90;;;;;;;-141.84;80.88;19419.59;4925077;28;20220;-64
2023/11/07 00:56:42;;;;;;;0.93;0.87;;;;;;;-141.84;81.62;19411.44;4925419;28;20289;-64
2023/11/07 00:59:11;;;;;;;1.00;0.90;;;;;;;-141.84;82.27;19421.63;4924831;28;20241;-63
2023/11/07 01:01:40;;;;;;;1.37;0.90;;;;;;;-141.84;83.25;19466.31;4917130;28;20324;-62
2023/11/07 01:04:09;;;;;;;3.43;0.80;;;;;;;-141.84;85.45;19553.72;4924848;28;20238;-63
2023/11/07 01:06:38;;;;;;;1.20;0.90;;;;;;;-141.84;83.86;19476.47;4925119;28;20244;-63
2023/11/07 01:09:11;;;;;;;0.93;0.70;;;;;;;-141.84;83.17;19464.28;4925319;28;20709;-63
2023/11/07 01:11:41;;;;;;;2.50;0.90;;;;;;;-141.84;85.82;19569.97;4918018;28;20633;-63
2023/11/07 01:14:09;;;;;;;1.97;1.10;;;;;;;-141.84;86.23;19610.59;4928108;28;20332;-64
2023/11/07 01:16:38;;;;;;;1.27;0.80;;;;;;;-141.84;84.88;19549.63;4922831;28;20242;-63
2023/11/07 01:19:06;;;;;;;1.40;0.80;;;;;;;-141.84;85.50;19531.34;4924168;28;20243;-64
2023/11/07 01:21:35;;;;;;;1.60;1.00;;;;;;;-141.84;86.49;19653.28;4920878;28;20233;-62
2023/11/07 01:24:04;;;;;;;2.60;1.07;;;;;;;-141.84;88.26;19781.31;4929081;28;20209;-64
2023/11/07 01:26:34;;;;;;;1.20;0.80;;;;;;;-141.84;90.14;20063.81;4928669;28;20709;-63
2023/11/07 01:29:02;;;;;;;1.97;0.87;;;;;;;-141.84;90.80;20338.22;4927831;28;20240;-63
2023/11/07 01:31:31;;;;;;;2.50;1.00;;;;;;;-141.84;90.46;20195.94;4920129;28;20237;-63
2023/11/07 01:33:59;;;;;;;0.93;0.93;;;;;;;-141.84;92.66;20992.78;4928070;28;20272;-63
2023/11/07 01:36:28;;;;;;;3.60;1.10;;;;;;;-141.84;92.71;21198.13;4927442;28;20240;-63
2023/11/07 01:38:56;;;;;;;2.70;0.97;;;;;;;-141.84;92.03;21088.34;4928666;28;20308;-63
2023/11/07 01:41:25;;;;;;;1.00;0.90;;;;;;;-141.84;92.30;20960.25;4927813;28;20323;-62
2023/11/07 01:43:55;;;;;;;4.23;1.40;;;;;;;-141.84;95.01;23512.44;4907009;29;20373;-63
2023/11/07 01:46:24;;;;;;;1.37;0.80;;;;;;;-141.84;93.42;22314.44;4908794;29;20274;-65
2023/11/07 01:48:52;;;;;;;2.27;1.00;;;;;;;-141.84;91.56;20761.03;4922115;28;20233;-64
2023/11/07 01:51:21;;;;;;;1.00;0.90;;;;;;;-141.84;92.78;21403.47;4927377;28;20201;-63
2023/11/07 01:53:52;;;;;;;1.17;0.90;;;;;;;-141.84;93.63;22237.16;4920540;28;20280;-63
2023/11/07 01:56:23;;;;;;;1.47;1.00;;;;;;;-141.84;91.11;20630.94;4928159;28;20264;-63
2023/11/07 01:58:54;;;;;;;3.23;1.20;;;;;;;-141.84;90.37;20252.84;4926765;28;20269;-62
2023/11/07 02:01:25;;;;;;;0.80;0.80;;;;;;;-141.84;91.78;20736.63;4927652;28;20680;-63
2023/11/07 02:03:54;;;;;;;1.10;1.00;;;;;;;-141.84;93.40;21950.44;4923158;28;20692;-63
2023/11/07 02:06:23;;;;;;;2.67;1.10;;;;;;;-141.84;91.79;20927.72;4927167;28;20217;-62
2023/11/07 02:08:52;;;;;;;1.43;1.27;;;;;;;-141.84;90.37;20317.91;4927541;28;20293;-63
2023/11/07 02:11:21;;;;;;;1.20;0.80;;;;;;;-141.84;88.56;19862.63;4927052;28;20606;-62
2023/11/07 02:13:49;;;;;;;2.73;1.10;;;;;;;-141.84;90.85;20450.03;4919626;28;20390;-62
2023/11/07 02:16:19;;;;;;;1.97;1.07;;;;;;;-141.84;89.49;20100.41;4924465;28;20264;-63
2023/11/07 02:18:47;;;;;;;2.63;1.03;;;;;;;-141.84;90.43;20232.53;4921048;28;20229;-62
2023/11/07 02:21:16;;;;;;;1.90;0.90;;;;;;;-141.84;91.83;20807.78;4926689;28;20226;-63
2023/11/07 02:23:46;;;;;;;3.87;0.90;;;;;;;-141.84;93.60;21991.09;4919488;28;20735;-63
2023/11/07 02:26:15;;;;;;;1.70;1.00;;;;;;;-141.84;93.62;22178.19;4926873;28;20240;-63
2023/11/07 02:28:46;;;;;;;2.40;1.00;;;;;;;-141.84;94.02;22641.88;4926432;28;20240;-64
2023/11/07 02:31:14;;;;;;;2.37;1.20;;;;;;;-141.84;94.32;23453.47;4926912;28;20252;-62
2023/11/07 02:33:43;;;;;;;2.80;1.10;;;;;;;-141.84;94.33;23079.19;4918420;28;20773;-63
2023/11/07 02:36:12;;;;;;;2.53;1.00;;;;;;;-141.84;94.78;23650.78;4926877;28;20240;-64
2023/11/07 02:38:40;;;;;;;1.73;1.00;;;;;;;-141.84;94.88;24393.41;4927072;28;20342;-62
2023/11/07 02:41:10;;;;;;;0.80;0.80;;;;;;;-141.84;93.94;22816.78;4926564;28;20233;-63
2023/11/07 02:43:39;;;;;;;4.43;1.00;;;;;;;-141.84;93.79;22450.69;4919580;28;20504;-63
2023/11/07 02:46:08;;;;;;;3.30;1.10;;;;;;;-141.84;93.42;21867.06;4926155;28;20272;-62
2023/11/07 02:48:36;;;;;;;2.53;1.07;;;;;;;-141.84;94.98;23896.94;4925823;28;20772;-63
2023/11/07 02:51:05;;;;;;;4.73;1.20;;;;;;;-141.84;94.27;23486.00;4926413;28;20686;-63
2023/11/07 02:53:34;;;;;;;1.37;1.10;;;;;;;-141.84;93.15;21828.44;4918607;28;20226;-61
2023/11/07 02:56:03;;;;;;;4.53;1.30;;;;;;;-141.84;94.71;23827.78;4926511;28;20245;-62
2023/11/07 02:58:33;;;;;;;2.57;1.17;;;;;;;-141.84;95.50;25130.03;4926527;28;20324;-63
2023/11/07 03:01:02;;;;;;;4.03;1.30;;;;;;;-141.84;92.30;21167.63;4925891;28;20323;-63
2023/11/07 03:03:33;;;;;;;1.63;0.80;;;;;;;-141.84;92.17;21021.25;4918761;28;20229;-65
2023/11/07 03:06:02;;;;;;;1.57;1.10;;;;;;;-141.84;90.45;20456.13;4926528;28;20284;-63
2023/11/07 03:08:31;;;;;;;2.43;0.90;;;;;;;-141.84;91.42;20571.97;4925888;28;20245;-63
2023/11/07 03:10:59;;;;;;;1.33;0.90;;;;;;;-141.84;92.69;21389.22;4925845;28;20328;-63
2023/11/07 03:13:28;;;;;;;1.60;1.20;;;;;;;-141.84;91.60;20712.25;4924394;28;20476;-63
2023/11/07 03:15:57;;;;;;;2.27;0.93;;;;;;;-141.84;89.70;20143.09;4926213;28;20233;-63
2023/11/07 03:18:27;;;;;;;1.50;1.10;;;;;;;-141.84;87.93;19803.69;4916882;28;20210;-63
2023/11/07 03:20:55;;;;;;;1.13;0.97;;;;;;;-141.84;87.61;19761.00;4926354;28;20324;-62
2023/11/07 03:23:24;;;;;;;2.17;0.83;;;;;;;-141.84;87.43;19756.94;4926085;28;20240;-63
2023/11/07 03:25:52;;;;;;;1.67;1.00;;;;;;;-141.84;87.00;19712.22;4919945;28;20743;-63
2023/11/07 03:28:21;;;;;;;2.50;0.90;;;;;;;-141.84;86.59;19661.41;4925592;28;20244;-64
2023/11/07 03:30:49;;;;;;;2.50;1.10;;;;;;;-141.84;85.13;19578.09;4926151;28;20265;-63
2023/11/07 03:33:20;;;;;;;2.13;1.00;;;;;;;-141.84;84.95;19578.09;4925508;28;20312;-63
2023/11/07 03:35:49;;;;;;;0.70;0.70;;;;;;;-141.84;82.88;19472.41;4917852;28;22662;-63
2023/11/07 03:38:18;;;;;;;2.50;0.90;;;;;;;-141.84;83.91;19525.25;4925238;28;20229;-63
2023/11/07 03:40:46;;;;;;;1.60;1.10;;;;;;;-141.84;82.68;19468.34;4925919;28;20323;-62
2023/11/07 03:43:16;;;;;;;1.27;0.90;;;;;;;-141.84;83.32;19464.28;4924171;28;20313;-63
2023/11/07 03:45:45;;;;;;;0.93;0.80;;;;;;;-141.84;84.33;19482.56;4918108;28;20237;-63
2023/11/07 03:48:24;;;;;;;1.60;0.80;;;;;;;-141.84;85.98;19596.38;4925590;28;20704;-64
2023/11/07 03:50:54;;;;;;;2.13;0.97;;;;;;;-141.84;87.85;19752.88;4925606;28;20220;-63
2023/11/07 03:53:22;;;;;;;1.20;0.90;;;;;;;-141.84;88.84;19911.41;4906473;28;20292;-63
2023/11/07 03:55:51;;;;;;;1.53;1.00;;;;;;;-141.84;88.47;19907.31;4898965;29;20229;-63
2023/11/07 03:58:20;;;;;;;1.60;1.07;;;;;;;-141.84;88.90;19907.31;4906474;29;20265;-63
2023/11/07 04:00:48;;;;;;;2.27;1.50;;;;;;;-141.84;89.52;20065.84;4906587;28;20725;-62
2023/11/07 04:03:17;;;;;;;0.97;0.90;;;;;;;-141.84;88.33;19870.75;4906879;29;20309;-63
2023/11/07 04:05:47;;;;;;;1.13;0.90;;;;;;;-141.84;88.88;19915.47;4899163;28;20214;-62
2023/11/07 04:08:16;;;;;;;1.53;1.10;;;;;;;-141.84;90.56;20350.41;4906111;29;20245;-63
2023/11/07 04:10:44;;;;;;;2.57;1.00;;;;;;;-141.84;90.02;20159.34;4908648;28;20225;-63
2023/11/07 04:13:13;;;;;;;2.30;1.13;;;;;;;-141.84;90.88;20374.81;4925173;28;20229;-63
2023/11/07 04:15:42;;;;;;;1.63;1.07;;;;;;;-141.84;90.61;20321.97;4918030;28;20288;-63
2023/11/07 04:18:10;;;;;;;2.93;1.00;;;;;;;-141.84;89.44;20067.88;4925191;28;20295;-62
2023/11/07 04:20:42;;;;;;;1.23;1.10;;;;;;;-141.84;90.39;20222.38;4925551;28;20209;-63
2023/11/07 04:23:13;;;;;;;0.90;0.90;;;;;;;-141.84;92.23;21021.25;4925208;28;20325;-63
2023/11/07 04:25:42;;;;;;;2.07;0.90;;;;;;;-141.84;91.42;20641.09;4917677;28;20845;-62
2023/11/07 04:28:10;;;;;;;2.27;1.10;;;;;;;-141.84;92.89;21480.72;4925098;28;20241;-63
2023/11/07 04:30:39;;;;;;;0.93;0.83;;;;;;;-141.84;91.71;20874.88;4925210;28;20256;-63
2023/11/07 04:33:07;;;;;;;2.20;1.07;;;;;;;-141.84;90.51;20328.06;4924902;28;20224;-63
2023/11/07 04:35:36;;;;;;;2.73;1.00;;;;;;;-141.84;91.51;20683.78;4918005;28;20681;-63
2023/11/07 04:38:05;;;;;;;4.20;1.07;;;;;;;-141.84;90.35;20273.19;4924887;28;20620;-63
2023/11/07 04:40:35;;;;;;;2.63;1.20;;;;;;;-141.84;91.75;20793.56;4924663;28;20774;-63
2023/11/07 04:43:03;;;;;;;2.60;0.97;;;;;;;-141.84;91.37;20836.25;4925153;28;20261;-63
2023/11/07 04:45:32;;;;;;;2.47;0.90;;;;;;;-141.84;90.04;20195.94;4918535;28;20240;-63
2023/11/07 04:48:01;;;;;;;2.63;1.10;;;;;;;-141.84;88.96;19976.44;4929040;28;20304;-62
2023/11/07 04:50:30;;;;;;;3.03;0.90;;;;;;;-141.84;90.02;20169.53;4928517;28;20316;-63
2023/11/07 04:52:58;;;;;;;5.20;1.47;;;;;;;-141.84;88.64;19874.81;4928460;28;20721;-62
2023/11/07 04:55:26;;;;;;;1.73;1.10;;;;;;;-141.84;90.95;20476.44;4927987;28;20777;-62
2023/11/07 04:57:56;;;;;;;1.10;0.90;;;;;;;-141.84;91.09;20582.16;4926530;28;20323;-62
2023/11/07 05:00:26;;;;;;;1.13;1.00;;;;;;;-141.84;87.79;19815.88;4929075;28;20215;-63
2023/11/07 05:02:55;;;;;;;2.50;0.83;;;;;;;-141.84;85.95;19655.31;4927072;28;20666;-63
2023/11/07 05:05:24;;;;;;;1.37;1.03;;;;;;;-141.84;86.09;19600.44;4926830;28;20225;-62
2023/11/07 05:07:52;;;;;;;1.83;1.10;;;;;;;-141.84;86.35;19661.41;4922468;28;20320;-63
2023/11/07 05:10:20;;;;;;;1.17;0.90;;;;;;;-141.84;87.61;19742.72;4927683;28;20276;-62
2023/11/07 05:12:49;;;;;;;1.20;1.00;;;;;;;-141.84;87.32;19750.84;4927774;28;20269;-63
2023/11/07 05:15:19;;;;;;;1.20;0.90;;;;;;;-141.84;89.16;20029.28;4927865;28;20740;-63
2023/11/07 05:17:48;;;;;;;1.63;1.00;;;;;;;-141.84;87.88;19809.78;4920956;28;20224;-62
2023/11/07 05:20:17;;;;;;;2.43;1.47;;;;;;;-141.84;88.24;19856.53;4927602;28;20233;-62
2023/11/07 05:22:46;;;;;;;1.73;0.90;;;;;;;-141.84;86.97;19716.28;4928437;28;20404;-63
2023/11/07 05:25:14;;;;;;;3.40;2.33;;;;;;;-141.84;88.18;19830.09;4928333;28;20498;-63
2023/11/07 05:27:43;;;;;;;3.93;2.33;;;;;;;-141.84;89.34;20004.88;4919964;28;20249;-63
2023/11/07 05:30:14;;;;;;;2.60;1.30;;;;;;;-141.84;88.57;19917.50;4927998;28;20293;-64
2023/11/07 05:32:47;;;;;;;2.20;1.40;;;;;;;-141.84;89.35;20086.19;4928515;28;20384;-64
2023/11/07 05:35:23;;;;;;;2.63;1.40;;;;;;;-141.84;90.74;20362.63;4927547;28;20241;-63
2023/11/07 05:38:05;;;;;;;1.73;1.17;;;;;;;-141.84;90.80;20439.84;4920442;28;20264;-63
2023/11/07 05:40:36;;;;;;;3.57;1.23;;;;;;;-141.84;90.14;20311.78;4927479;28;20232;-63
2023/11/07 05:43:08;;;;;;;2.17;1.40;;;;;;;-141.84;89.57;20163.41;4927509;28;20611;-65
2023/11/07 05:45:36;;;;;;;2.20;1.50;;;;;;;-141.84;89.54;20098.38;4920004;28;20701;-62
2023/11/07 05:48:06;;;;;;;1.47;1.00;;;;;;;-141.84;91.22;20574.00;4928627;28;20239;-62
2023/11/07 05:50:35;;;;;;;1.87;1.40;;;;;;;-141.84;91.70;20864.72;4927526;28;20239;-63
2023/11/07 05:53:05;;;;;;;1.87;1.13;;;;;;;-141.84;89.91;20283.34;4927616;28;20735;-63
2023/11/07 05:55:33;;;;;;;1.20;1.10;;;;;;;-141.84;90.04;20228.47;4919797;28;20275;-63
2023/11/07 05:58:02;;;;;;;3.03;1.20;;;;;;;-141.84;88.58;19874.81;4926810;28;20784;-63
2023/11/07 06:00:33;;;;;;;1.73;1.30;;;;;;;-141.84;88.06;19852.44;4924400;28;20273;-63
2023/11/07 06:03:02;;;;;;;1.60;1.33;;;;;;;-141.84;88.85;19943.91;4916456;29;20701;-62
2023/11/07 06:05:34;;;;;;;2.80;1.40;;;;;;;-141.84;86.53;19706.13;4920287;28;20229;-63
2023/11/07 06:08:02;;;;;;;3.27;1.40;;;;;;;-141.84;87.19;19752.88;4912434;28;20240;-63
2023/11/07 06:10:31;;;;;;;2.03;1.40;;;;;;;-141.84;88.73;19891.06;4908325;29;20242;-63
2023/11/07 06:12:59;;;;;;;3.73;2.83;;;;;;;-141.84;89.75;20202.03;4917156;28;20257;-62
2023/11/07 06:15:28;;;;;;;4.27;2.50;;;;;;;-141.84;89.23;20033.34;4915260;28;20241;-64
2023/11/07 06:17:56;;;;;;;3.50;2.37;;;;;;;-141.84;90.55;20506.94;4922822;28;20288;-63
2023/11/07 06:20:25;;;;;;;3.67;2.03;;;;;;;-141.84;89.98;20214.22;4927062;28;20237;-63
2023/11/07 06:22:55;;;;;;;3.80;1.60;;;;;;;-141.84;89.61;20124.81;4926980;28;20666;-62
2023/11/07 06:25:24;;;;;;;1.77;1.30;;;;;;;-141.84;88.66;20035.38;4924656;28;20594;-63
2023/11/07 06:27:54;;;;;;;2.03;1.20;;;;;;;-141.84;88.58;19970.34;4918323;28;20229;-62
2023/11/07 06:30:23;;;;;;;4.57;1.70;;;;;;;-141.84;88.96;20008.94;4924878;28;20308;-63
2023/11/07 06:32:52;;;;;;;4.27;1.60;;;;;;;-141.84;89.20;20043.50;4926936;28;20529;-63
2023/11/07 06:35:21;;;;;;;2.57;1.73;;;;;;;-141.84;89.04;20082.13;4926436;28;20247;-63
2023/11/07 06:37:49;;;;;;;2.30;1.60;;;;;;;-141.84;88.47;19923.59;4917483;28;22771;-64
2023/11/07 06:40:20;;;;;;;2.83;1.40;;;;;;;-141.84;89.25;20035.38;4927603;28;20233;-63
2023/11/07 06:42:51;;;;;;;3.73;1.93;;;;;;;-141.84;89.31;20139.03;4919224;28;20725;-63
2023/11/07 06:45:20;;;;;;;1.97;1.63;;;;;;;-141.84;89.21;20061.78;4927926;28;20260;-62
2023/11/07 06:47:48;;;;;;;3.07;1.60;;;;;;;-141.84;90.49;20391.06;4919649;28;20249;-62
2023/11/07 06:50:17;;;;;;;3.23;1.83;;;;;;;-141.84;92.11;21051.75;4921273;28;20233;-63
2023/11/07 06:52:50;;;;;;;1.80;1.50;;;;;;;-141.84;91.97;21114.75;4923649;28;20249;-61
2023/11/07 06:55:24;;;;;;;3.57;1.40;;;;;;;-141.84;89.80;20263.00;4917783;28;20652;-64
2023/11/07 06:57:54;;;;;;;4.07;1.90;;;;;;;-141.84;89.57;20134.97;4919989;28;20237;-63
2023/11/07 07:00:24;;;;;;;2.73;1.50;;;;;;;-141.84;89.17;20015.03;4925997;28;20209;-62
2023/11/07 07:02:55;;;;;;;4.13;1.47;;;;;;;-141.84;90.18;20226.44;4927153;28;20257;-63
2023/11/07 07:05:25;;;;;;;2.97;1.43;;;;;;;-141.84;88.13;19901.22;4914085;28;20304;-63
2023/11/07 07:07:55;;;;;;;2.93;1.47;;;;;;;-141.84;89.08;20021.16;4923015;28;20288;-64
2023/11/07 07:10:25;;;;;;;2.00;1.30;;;;;;;-141.84;86.28;19700.03;4916715;28;20241;-63
2023/11/07 07:12:54;;;;;;;3.43;1.57;;;;;;;-141.84;86.76;19720.34;4911196;28;20774;-64
2023/11/07 07:15:23;;;;;;;3.07;1.60;;;;;;;-141.84;86.65;19708.16;4919628;29;20276;-64
2023/11/07 07:17:52;;;;;;;3.47;1.50;;;;;;;-141.84;86.86;19722.38;4916922;28;20632;-62
2023/11/07 07:20:21;;;;;;;2.53;1.63;;;;;;;-141.84;85.39;19639.06;4921845;28;20241;-61
2023/11/07 07:22:49;;;;;;;2.70;1.47;;;;;;;-141.84;86.16;19639.06;4924432;28;20300;-63
2023/11/07 07:25:20;;;;;;;2.27;1.30;;;;;;;-141.84;84.72;19567.94;4911584;29;20330;-62
2023/11/07 07:27:52;;;;;;;2.57;1.90;;;;;;;-141.84;84.41;19515.09;4918666;28;20245;-63
2023/11/07 07:30:26;;;;;;;3.37;1.40;;;;;;;-141.84;83.99;19541.50;4920918;28;20225;-63
2023/11/07 07:32:55;;;;;;;2.10;1.30;;;;;;;-141.84;83.11;19494.78;4924222;28;20214;-62
2023/11/07 07:35:23;;;;;;;2.47;1.50;;;;;;;-141.84;81.78;19454.13;4925971;28;20237;-63
2023/11/07 07:37:52;;;;;;;3.73;1.80;;;;;;;-141.84;80.85;19464.28;4919146;28;20606;-63
2023/11/07 07:40:25;;;;;;;1.90;1.30;;;;;;;-141.84;81.79;19427.72;4920308;28;20232;-63
2023/11/07 07:42:58;;;;;;;1.50;1.30;;;;;;;-141.84;81.53;19454.13;4923969;28;20269;-63
2023/11/07 07:45:29;;;;;;;2.07;1.17;;;;;;;-141.84;81.23;19405.34;4918440;28;20233;-63
2023/11/07 07:47:59;;;;;;;4.30;1.40;;;;;;;-141.84;82.33;19431.78;4918735;28;20217;-63
2023/11/07 07:50:30;;;;;;;2.20;1.30;;;;;;;-141.84;82.26;19431.78;4921384;28;20225;-61
2023/11/07 07:53:02;;;;;;;3.53;1.40;;;;;;;-141.84;82.65;19460.22;4919939;28;20222;-65
2023/11/07 07:55:30;;;;;;;2.57;1.40;;;;;;;-141.84;83.56;19523.22;4917738;28;20755;-65
2023/11/07 07:58:06;;;;;;;1.77;1.60;;;;;;;-141.84;81.52;19468.34;4923348;28;20740;-64
2023/11/07 08:00:37;;;;;;;3.40;1.37;;;;;;;-141.84;82.12;19462.25;4924329;28;20260;-64
2023/11/07 08:03:08;;;;;;;3.47;1.37;;;;;;;-141.84;82.49;19474.44;4925293;28;20201;-65
2023/11/07 08:05:38;;;;;;;1.87;1.17;;;;;;;-141.84;81.82;19429.75;4917931;28;20597;-63
2023/11/07 08:08:14;;;;;;;2.13;1.30;;;;;;;-141.84;81.56;19460.22;4925349;28;20240;-64
2023/11/07 08:10:47;;;;;;;2.60;1.80;;;;;;;-141.84;81.12;19415.50;4925035;28;20300;-63
2023/11/07 08:13:18;;;;;;;6.40;1.67;;;;;;;-141.84;79.38;19415.50;4924706;28;20317;-62
2023/11/07 08:16:06;;;;;;;3.10;1.50;;;;;;;-141.84;80.04;19415.50;4917344;28;20244;-62
2023/11/07 08:18:55;;;;;;;2.10;1.30;;;;;;;-141.84;79.07;19387.06;4925128;28;20271;-62
2023/11/07 08:21:30;;;;;;;2.80;1.33;;;;;;;-141.84;78.73;19435.84;4926283;28;20216;-64
2023/11/07 08:23:59;;;;;;;3.37;1.40;;;;;;;-141.84;77.32;19389.09;4926760;28;20308;-63
2023/11/07 08:26:28;;;;;;;4.87;1.53;;;;;;;-141.84;76.30;19411.44;4919776;28;20216;-64
2023/11/07 08:28:59;;;;;;;2.60;1.40;;;;;;;-141.84;76.00;19368.78;4928930;28;20229;-64
2023/11/07 08:31:27;;;;;;;2.73;2.13;;;;;;;-141.84;76.07;19385.03;4923426;28;20231;-65
2023/11/07 08:33:56;;;;;;;3.55;1.77;;;;;;;-141.84;75.04;19368.78;4925653;28;20260;-64
2023/11/07 08:36:24;;;;;;;2.97;1.67;;;;;;;-141.84;74.86;19413.47;4929027;28;20235;-65
2023/11/07 08:38:53;;;;;;;2.37;1.40;;;;;;;-141.84;73.91;19397.22;4929255;28;20209;-64
2023/11/07 08:41:23;;;;;;;3.20;1.60;;;;;;;-141.84;73.80;19417.56;4927764;28;20234;-64
2023/11/07 08:43:52;;;;;;;5.80;1.53;;;;;;;-141.84;73.75;19378.94;4920606;28;20259;-64
2023/11/07 08:46:23;;;;;;;2.90;1.30;;;;;;;-141.84;73.20;19387.06;4928424;28;20308;-64
2023/11/07 08:48:53;;;;;;;3.00;1.37;;;;;;;-141.84;73.30;19409.41;4928679;28;20296;-64
2023/11/07 08:51:22;;;;;;;2.47;1.33;;;;;;;-141.84;72.00;19419.59;4928985;28;20210;-64
2023/11/07 08:53:51;;;;;;;1.80;1.03;;;;;;;-141.84;71.95;19403.31;4922127;28;20312;-63
2023/11/07 08:56:24;;;;;;;2.47;1.00;;;;;;;-141.84;70.50;19389.09;4928921;28;20328;-63
2023/11/07 08:58:54;;;;;;;2.60;1.40;;;;;;;-141.84;70.64;19389.09;4928494;28;20233;-63
2023/11/07 09:01:25;;;;;;;2.30;1.20;;;;;;;-141.84;70.58;19417.56;4928246;28;20267;-64
2023/11/07 09:03:54;;;;;;;1.30;0.90;;;;;;;-141.84;69.30;19417.56;4924249;28;20248;-63
2023/11/07 09:06:22;;;;;;;1.10;1.00;;;;;;;-141.84;68.82;19421.63;4928587;28;20241;-65
2023/11/07 09:08:51;;;;;;;1.50;1.10;;;;;;;-141.84;68.43;19433.81;4929041;28;20320;-63
2023/11/07 09:11:20;;;;;;;1.63;0.90;;;;;;;-141.84;67.57;19419.59;4928446;28;20272;-63
2023/11/07 09:13:50;;;;;;;3.53;1.30;;;;;;;-141.84;67.12;19443.97;4920565;28;20713;-64
2023/11/07 09:16:18;;;;;;;1.97;0.97;;;;;;;-141.84;66.42;19462.25;4927769;28;20269;-64
2023/11/07 09:18:48;;;;;;;1.92;1.10;;;;;;;-141.84;66.62;19466.31;4927702;28;20684;-64
2023/11/07 09:21:17;;;;;;;2.10;1.13;;;;;;;-141.84;66.32;19492.75;4928410;28;20584;-63
2023/11/07 09:23:46;;;;;;;2.92;1.00;;;;;;;-141.84;65.45;19478.50;4921619;28;20300;-64
2023/11/07 09:26:24;;;;;;;1.85;1.25;;;;;;;-141.84;64.46;19468.34;4928588;28;20244;-63
2023/11/07 09:28:52;;;;;;;1.23;1.00;;;;;;;-141.84;64.50;19476.47;4928053;28;20265;-64
2023/11/07 09:31:21;;;;;;;0.98;0.90;;;;;;;-141.84;65.02;19464.28;4928156;28;20246;-63
2023/11/07 09:33:50;;;;;;;1.35;1.00;;;;;;;-141.84;67.16;19405.34;4919436;28;20527;-64
2023/11/07 09:36:19;;;;;;;1.67;1.10;;;;;;;-141.84;67.47;19407.38;4928256;28;20237;-63
2023/11/07 09:38:50;;;;;;;1.37;1.00;;;;;;;-141.84;66.62;19450.06;4928773;28;20244;-64
2023/11/07 09:41:21;;;;;;;1.05;0.95;;;;;;;-141.84;65.59;19439.91;4927720;28;20237;-63
2023/11/07 09:43:51;;;;;;;2.13;0.98;;;;;;;-141.84;64.70;19464.28;4920224;28;20692;-65
2023/11/07 09:46:22;;;;;;;3.65;0.90;;;;;;;-141.84;64.04;19482.56;4927643;28;20264;-63
2023/11/07 09:48:54;;;;;;;1.05;0.73;;;;;;;-141.84;62.56;19509.00;4927813;28;20237;-63
2023/11/07 09:51:27;;;;;;;2.35;1.00;;;;;;;-141.84;60.51;19531.34;4927506;28;20260;-63
2023/11/07 09:53:58;;;;;;;2.83;0.90;;;;;;;-141.84;60.73;19525.25;4927836;28;20626;-63
2023/11/07 09:56:38;;;;;;;1.05;0.80;;;;;;;-141.84;60.05;19533.38;4927347;28;20237;-63
2023/11/07 09:59:15;;;;;;;0.80;0.70;;;;;;;-141.84;60.18;19492.75;4924963;28;20236;-64
2023/11/07 10:01:44;;;;;;;1.67;0.93;;;;;;;-141.84;60.23;19509.00;4913608;28;20236;-65
2023/11/07 10:04:15;;;;;;;1.33;0.73;;;;;;;-141.84;60.07;19519.16;4926304;28;20737;-64
2023/11/07 10:06:44;;;;;;;1.63;1.08;;;;;;;-141.84;59.99;19511.03;4926933;28;20288;-63
2023/11/07 10:09:14;;;;;;;2.17;0.90;;;;;;;-141.84;60.80;19533.38;4927060;28;20217;-64
2023/11/07 10:11:49;;;;;;;1.42;0.88;;;;;;;-141.84;61.00;19543.53;4920108;28;20277;-64
2023/11/07 10:14:20;;;;;;;1.15;0.93;;;;;;;-141.84;60.30;19480.53;4918106;28;20748;-64
2023/11/07 10:16:52;;;;;;;2.70;0.98;;;;;;;-141.84;61.86;19496.81;4921523;28;20261;-64
2023/11/07 10:19:24;;;;;;;3.95;1.00;;;;;;;-141.84;62.56;19511.03;4925055;28;20591;-65
2023/11/07 10:21:53;;;;;;;0.97;0.77;;;;;;;-141.84;62.93;19494.78;4919494;28;20269;-65
2023/11/07 10:24:22;;;;;;;1.67;0.80;;;;;;;-141.84;63.24;19496.81;4927483;28;20662;-65
2023/11/07 10:26:52;;;;;;;1.70;0.90;;;;;;;-141.84;62.46;19484.59;4922806;28;20272;-65
2023/11/07 10:29:30;;;;;;;2.97;0.90;;;;;;;-141.84;62.16;19496.81;4927666;28;20240;-65
2023/11/07 10:32:02;;;;;;;1.45;0.90;;;;;;;-141.84;63.59;19476.47;4926896;28;20747;-65
2023/11/07 10:34:33;;;;;;;0.85;0.77;;;;;;;-141.84;62.88;19496.81;4925272;28;20233;-65
2023/11/07 10:37:11;;;;;;;3.80;1.35;;;;;;;-141.84;62.91;19486.66;4927149;28;20261;-65
2023/11/07 10:39:39;;;;;;;1.07;0.80;;;;;;;-141.84;63.50;19464.28;4919984;28;20237;-64
2023/11/07 10:42:17;;;;;;;1.40;0.70;;;;;;;-141.84;63.12;19502.91;4926782;28;20300;-67
2023/11/07 10:44:48;;;;;;;2.22;1.08;;;;;;;-141.84;62.86;19529.31;4926454;28;20328;-61
2023/11/07 10:47:19;;;;;;;0.80;0.80;;;;;;;-141.84;62.86;19486.66;4925581;28;20606;-62
2023/11/07 10:49:52;;;;;;;2.50;1.00;;;;;;;-141.84;62.49;19492.75;4918732;28;20339;-61
2023/11/07 10:52:21;;;;;;;1.20;1.00;;;;;;;-141.84;61.71;19525.25;4926129;28;20328;-62
2023/11/07 10:54:49;;;;;;;2.65;1.20;;;;;;;-141.84;62.17;19553.72;4926264;28;20304;-62
2023/11/07 10:57:26;;;;;;;2.28;1.05;;;;;;;-141.84;62.42;19502.91;4926273;28;20209;-62
2023/11/07 11:00:05;;;;;;;1.02;0.93;;;;;;;-141.84;61.10;19549.63;4922956;28;20663;-63
2023/11/07 11:02:34;;;;;;;2.08;1.00;;;;;;;-141.84;61.82;19515.09;4926307;28;20724;-64
2023/11/07 11:05:12;;;;;;;2.67;1.10;;;;;;;-141.84;62.31;19504.94;4925982;28;20723;-69
2023/11/07 11:07:49;;;;;;;2.40;1.05;;;;;;;-141.84;62.38;19537.44;4918159;28;20232;-68
2023/11/07 11:10:21;;;;;;;1.08;1.00;;;;;;;-141.84;62.71;19506.97;4925715;28;20225;-64
2023/11/07 11:12:51;;;;;;;1.40;0.90;;;;;;;-141.84;62.16;19543.53;4926056;28;20241;-67
2023/11/07 11:15:20;;;;;;;1.83;1.00;;;;;;;-141.84;62.71;19559.81;4925442;28;20283;-66
2023/11/07 11:17:55;;;;;;;3.65;1.00;;;;;;;-141.84;62.43;19535.41;4918062;28;20573;-65
2023/11/07 11:20:34;;;;;;;1.17;0.87;;;;;;;-141.84;63.57;19523.22;4926082;28;20319;-64
2023/11/07 11:23:15;;;;;;;1.42;0.93;;;;;;;-141.84;62.90;19502.91;4925229;28;20273;-65
2023/11/07 11:26:01;;;;;;;2.23;0.80;;;;;;;-141.84;62.57;19533.38;4916586;28;20233;-61
2023/11/07 11:28:40;;;;;;;1.80;1.00;;;;;;;-141.84;63.07;19539.47;4926457;28;20225;-64
2023/11/07 11:31:21;;;;;;;1.30;0.80;;;;;;;-141.84;63.17;19480.53;4925719;28;20233;-63